»·PEaware :: N14677 KVNY-KSNA

N14677 :: KVNY-KSNA

FLIGHT INFORMATION

Flight Status: Arrived
Operator: Privately registered:
United States
More flights under this callsign
Pilot: David F. (21030)
Aircraft: CESSNA 172 SKYHAWK
(C172)
More flights by this aircraft type
Origin: KVNY Van Nuys
United States
Destination: KSNA John Wayne-Orange Co
United States
More flights between these airports :: More routes between these airports
Route: +CSTL RTE
File this flight plan on PilotEdge
Remarks:
Altitude:
(Current/Filed)
1,500ft
Speed:
(Current/Filed)
120kts
Departed: 04-Dec-18 02:06 PM
Arrived: 04-Dec-18 03:33 PM
Distance/Time
Traveled:
45nm/1:27
Distance/Time
To Go:
Arrived

Flight Plot

Page will automatically refresh every two minutes.

Flight plan parsing failed; only flown route is shown


Map Options




Map Legend


Flown Route
Filed Route
Departure Airport
Arrival Airport
Navaid (VOR, NDB)
Fix

Horizontal Profiles

Position Reports

Time Latitude Longitude Heading Altitude Ground
Speed
04-Dec-18 14:02 34.215175 -118.491838 73 806ft 0kts
04-Dec-18 14:03 34.215175 -118.491838 73 806ft 0kts
04-Dec-18 14:04 34.215219 -118.491642 77 806ft 7kts
04-Dec-18 14:05 34.206893 -118.490931 182 1072ft 70kts
04-Dec-18 14:06 34.187085 -118.497314 209 1964ft 85kts
04-Dec-18 14:07 34.166926 -118.515244 223 2824ft 96kts
04-Dec-18 14:08 34.157698 -118.530058 86 3793ft 60kts
04-Dec-18 14:09 34.154023 -118.532922 166 4491ft 69kts
04-Dec-18 14:10 34.156402 -118.533569 246 5184ft 79kts
04-Dec-18 14:11 34.152443 -118.527060 32 5512ft 103kts
04-Dec-18 14:12 34.156956 -118.542842 171 5388ft 114kts
04-Dec-18 14:13 34.133076 -118.533522 156 5509ft 103kts
04-Dec-18 14:14 34.109453 -118.524082 156 5530ft 108kts
04-Dec-18 14:15 34.085507 -118.513713 153 5529ft 109kts
04-Dec-18 14:16 34.061581 -118.501563 150 5528ft 110kts
04-Dec-18 14:17 34.038518 -118.488844 150 5528ft 108kts
04-Dec-18 14:18 34.015705 -118.476197 150 5528ft 108kts
04-Dec-18 14:19 33.992519 -118.463279 150 5528ft 107kts
04-Dec-18 14:20 33.970158 -118.450754 150 5528ft 107kts
04-Dec-18 14:21 33.949274 -118.438996 150 5527ft 107kts
04-Dec-18 14:22 33.927329 -118.425708 143 5528ft 106kts
04-Dec-18 14:23 33.910231 -118.407928 132 5529ft 104kts
04-Dec-18 14:24 33.895132 -118.393235 136 5535ft 103kts
04-Dec-18 14:25 33.880143 -118.376377 137 5539ft 103kts
04-Dec-18 14:26 33.864681 -118.360132 137 5543ft 102kts
04-Dec-18 14:27 33.847658 -118.341908 137 5548ft 102kts
04-Dec-18 14:28 33.826233 -118.324804 149 5554ft 102kts
04-Dec-18 14:29 33.802147 -118.308215 148 5559ft 102kts
04-Dec-18 14:30 33.784468 -118.285702 100 5561ft 104kts
04-Dec-18 14:31 33.781397 -118.255614 104 5555ft 104kts
04-Dec-18 14:32 33.775185 -118.226059 104 5323ft 105kts
04-Dec-18 14:33 33.769836 -118.196581 104 4909ft 112kts
04-Dec-18 14:34 33.764876 -118.168449 105 4720ft 103kts
04-Dec-18 14:35 34.217552 -118.500540 89 806ft 0kts
04-Dec-18 14:36 34.217552 -118.500541 89 806ft 0kts
04-Dec-18 14:37 34.217552 -118.500541 89 806ft 0kts
04-Dec-18 14:38 34.217552 -118.500541 89 806ft 0kts
04-Dec-18 14:39 34.217552 -118.500541 89 806ft 0kts
04-Dec-18 14:40 34.217552 -118.500541 89 806ft 0kts
04-Dec-18 14:41 34.217552 -118.500540 89 806ft 0kts
04-Dec-18 14:42 34.215476 -118.499541 128 806ft 17kts
04-Dec-18 14:43 34.217023 -118.496064 90 806ft 23kts
04-Dec-18 14:44 34.217692 -118.492282 2 806ft 20kts
04-Dec-18 14:45 34.218593 -118.492264 40 806ft 0kts
04-Dec-18 14:46 34.218593 -118.492264 40 806ft 0kts
04-Dec-18 14:47 34.218707 -118.492121 53 806ft 8kts
04-Dec-18 14:48 34.214848 -118.490741 179 839ft 59kts
04-Dec-18 14:49 34.198023 -118.488923 176 1465ft 89kts
04-Dec-18 14:50 34.176834 -118.486186 170 2226ft 95kts
04-Dec-18 14:51 34.164964 -118.499876 228 3308ft 67kts
04-Dec-18 14:52 34.158452 -118.509673 156 4054ft 56kts
04-Dec-18 14:53 34.153530 -118.501008 64 4680ft 70kts
04-Dec-18 14:54 34.154747 -118.500119 164 5268ft 59kts
04-Dec-18 14:55 34.138443 -118.502806 252 5552ft 111kts
04-Dec-18 14:56 34.143609 -118.497695 143 5528ft 102kts
04-Dec-18 14:57 34.121165 -118.488890 160 5521ft 109kts
04-Dec-18 14:58 34.096790 -118.483292 176 5519ft 110kts
04-Dec-18 14:59 34.070693 -118.482549 176 5520ft 110kts
04-Dec-18 15:00 34.044449 -118.481814 176 5520ft 110kts
04-Dec-18 15:01 34.020230 -118.476240 153 5520ft 109kts
04-Dec-18 15:02 34.000353 -118.463949 153 5500ft 111kts
04-Dec-18 15:03 33.980390 -118.451569 153 5498ft 110kts
04-Dec-18 15:04 33.957872 -118.442117 167 5498ft 110kts
04-Dec-18 15:05 33.932396 -118.435743 165 5498ft 110kts
04-Dec-18 15:06 33.918581 -118.417783 119 5498ft 114kts
04-Dec-18 15:07 33.906603 -118.399428 138 5498ft 112kts
04-Dec-18 15:08 33.893080 -118.383897 138 5501ft 112kts
04-Dec-18 15:09 33.880262 -118.369483 140 5501ft 112kts
04-Dec-18 15:10 33.864480 -118.353573 141 5501ft 112kts
04-Dec-18 15:11 33.846470 -118.335707 141 5501ft 112kts
04-Dec-18 15:12 33.828523 -118.315642 113 5500ft 113kts
04-Dec-18 15:13 33.821534 -118.288431 110 5500ft 113kts
04-Dec-18 15:14 33.814115 -118.261862 110 5469ft 115kts
04-Dec-18 15:15 33.807033 -118.237321 109 4822ft 119kts
04-Dec-18 15:16 33.799761 -118.211905 108 4495ft 98kts
04-Dec-18 15:17 33.793493 -118.189989 107 4057ft 107kts
04-Dec-18 15:18 33.786657 -118.166152 107 3517ft 110kts
04-Dec-18 15:19 33.780191 -118.143355 106 3494ft 112kts
04-Dec-18 15:20 33.773370 -118.119527 106 3492ft 120kts
04-Dec-18 15:21 33.766221 -118.094526 107 3491ft 130kts
04-Dec-18 15:22 33.758653 -118.068221 107 3490ft 133kts
04-Dec-18 15:23 33.750999 -118.041636 107 3490ft 134kts
04-Dec-18 15:24 33.743473 -118.015512 108 3490ft 135kts
04-Dec-18 15:25 33.736170 -117.989911 107 3287ft 146kts
04-Dec-18 15:26 33.727348 -117.959187 111 2161ft 159kts
04-Dec-18 15:27 33.718239 -117.930025 109 1605ft 142kts
04-Dec-18 15:28 33.712252 -117.902723 103 1378ft 131kts
04-Dec-18 15:29 33.705792 -117.876157 106 1144ft 114kts
04-Dec-18 15:30 33.694490 -117.861572 168 780ft 89kts
04-Dec-18 15:31 33.678970 -117.866823 210 64ft 73kts
04-Dec-18 15:32 33.672066 -117.872292 249 60ft 0kts
04-Dec-18 15:33 33.672313 -117.873402 338 60ft 7kts
04-Dec-18 15:34 33.672581 -117.873377 30 60ft 0kts
04-Dec-18 15:35 33.672581 -117.873377 30 60ft 0kts
04-Dec-18 15:36 33.672581 -117.873377 30 60ft 0kts
04-Dec-18 15:37 33.672581 -117.873377 30 60ft 0kts
04-Dec-18 15:39 33.672581 -117.873377 30 60ft 0kts
04-Dec-18 15:40 33.672581 -117.873377 30 60ft 0kts
04-Dec-18 15:41 33.672581 -117.873377 30 60ft 0kts
04-Dec-18 15:42 33.672581 -117.873377 30 60ft 0kts
04-Dec-18 15:43 33.672581 -117.873377 30 60ft 0kts
04-Dec-18 15:44 33.672581 -117.873377 30 60ft 0kts
04-Dec-18 15:45 33.672581 -117.873377 30 60ft 0kts
04-Dec-18 15:46 33.672581 -117.873377 30 60ft 0kts
04-Dec-18 15:47 33.672581 -117.873377 30 60ft 0kts

Navigation Log

Ident Type
Flight plan parsing failed, navigation log unavailable